createdAt,value
2022-11-13T00:00:21.553Z,3.42
2022-11-13T00:03:47.643Z,3.10
2022-11-13T00:07:09.270Z,4.70
2022-11-13T00:10:31.257Z,9.95
2022-11-13T00:13:53.258Z,4.90
2022-11-13T00:17:15.221Z,3.85
2022-11-13T00:20:38.821Z,4.88
2022-11-13T00:24:00.721Z,2.47
2022-11-13T00:27:22.916Z,6.95
2022-11-13T00:30:45.122Z,5.18
2022-11-13T00:34:33.273Z,2.90
2022-11-13T00:37:50.586Z,2.45
2022-11-13T00:41:12.604Z,2.35
2022-11-13T00:44:34.508Z,2.85
2022-11-13T00:47:56.463Z,13.02
2022-11-13T00:51:19.828Z,4.57
2022-11-13T00:54:45.590Z,2.05
2022-11-13T00:58:09.935Z,1.02
2022-11-13T01:01:31.402Z,4.35
2022-11-13T01:04:53.385Z,6.47
2022-11-13T01:08:16.637Z,0.93
2022-11-13T01:11:40.110Z,3.50
2022-11-13T01:15:02.354Z,8.38
2022-11-13T01:18:24.523Z,1.55
2022-11-13T01:21:46.530Z,2.90
2022-11-13T01:25:09.055Z,5.38
2022-11-13T01:28:32.329Z,7.53
2022-11-13T01:31:54.597Z,2.38
2022-11-13T01:35:16.530Z,7.25
2022-11-13T01:38:38.590Z,2.30
2022-11-13T01:42:00.408Z,2.03
2022-11-13T01:46:11.383Z,2.53
2022-11-13T01:49:38.143Z,5.25
2022-11-13T01:53:00.786Z,3.85
2022-11-13T01:56:23.642Z,3.28
2022-11-13T01:59:49.180Z,2.50
2022-11-13T02:03:12.519Z,7.03
2022-11-13T02:06:39.476Z,2.25
2022-11-13T02:10:01.803Z,5.32
2022-11-13T02:13:23.870Z,3.00
2022-11-13T02:16:49.183Z,3.58
2022-11-13T02:20:12.801Z,7.50
2022-11-13T02:23:45.080Z,4.40
2022-11-13T02:27:12.067Z,4.55
2022-11-13T02:30:36.135Z,3.10
2022-11-13T02:33:58.032Z,3.85
2022-11-13T02:37:20.156Z,5.55
2022-11-13T02:40:42.138Z,6.63
2022-11-13T02:44:06.093Z,4.75
2022-11-13T02:47:28.002Z,4.25
2022-11-13T02:50:50.361Z,3.00
2022-11-13T02:54:16.735Z,2.58
2022-11-13T02:57:39.130Z,2.25
2022-11-13T03:01:04.830Z,2.83
2022-11-13T03:04:38.394Z,2.58
2022-11-13T03:08:08.738Z,2.92
2022-11-13T03:11:30.386Z,4.30
2022-11-13T03:14:52.474Z,6.28
2022-11-13T03:18:15.823Z,4.22
2022-11-13T03:21:38.110Z,3.58
2022-11-13T03:24:59.911Z,4.00
2022-11-13T03:28:21.600Z,3.30
2022-11-13T03:31:43.893Z,5.03
2022-11-13T03:35:08.968Z,3.80
2022-11-13T03:38:30.638Z,3.70
2022-11-13T03:41:52.712Z,2.22
2022-11-13T03:45:15.756Z,2.05
2022-11-13T03:48:37.620Z,3.28
2022-11-13T03:52:01.226Z,7.28
2022-11-13T03:55:23.090Z,4.57
2022-11-13T03:58:49.443Z,13.13
2022-11-13T04:02:11.697Z,0.50
2022-11-13T04:05:33.734Z,5.00
2022-11-13T04:08:57.678Z,4.35
2022-11-13T04:12:19.756Z,5.28
2022-11-13T04:15:44.676Z,4.70
2022-11-13T04:19:06.647Z,7.78
2022-11-13T04:22:28.199Z,2.65
2022-11-13T04:25:51.577Z,3.25
2022-11-13T04:29:13.473Z,6.97
2022-11-13T04:32:35.460Z,5.53
2022-11-13T04:35:57.628Z,7.80
2022-11-13T04:39:19.208Z,8.02
2022-11-13T04:42:50.467Z,1.33
2022-11-13T04:46:12.193Z,6.97
2022-11-13T04:49:34.275Z,5.53
2022-11-13T04:52:56.020Z,4.07
2022-11-13T04:56:17.878Z,1.73
2022-11-13T04:59:40.852Z,6.88
2022-11-13T05:03:02.595Z,6.47
2022-11-13T05:06:24.762Z,4.20
2022-11-13T05:09:46.732Z,2.83
2022-11-13T05:13:10.237Z,2.22
2022-11-13T05:16:36.690Z,8.05
2022-11-13T05:19:58.505Z,3.88
2022-11-13T05:23:20.030Z,15.52
2022-11-13T05:26:42.126Z,9.77
2022-11-13T05:30:04.492Z,10.07
2022-11-13T05:33:29.887Z,1.02
2022-11-13T05:36:51.675Z,3.80
2022-11-13T05:40:14.150Z,4.10
2022-11-13T05:43:36.703Z,4.30
2022-11-13T05:46:58.495Z,5.68
2022-11-13T05:50:22.697Z,6.07
2022-11-13T05:53:45.394Z,5.32
2022-11-13T05:57:07.340Z,20.98
2022-11-13T06:00:28.975Z,14.68
2022-11-13T06:03:51.158Z,9.85
2022-11-13T06:07:14.192Z,10.60
2022-11-13T06:10:40.753Z,3.97
2022-11-13T06:14:02.772Z,6.22
2022-11-13T06:17:24.533Z,10.27
2022-11-13T06:20:48.789Z,8.40
2022-11-13T06:24:13.817Z,6.25
2022-11-13T06:27:35.383Z,5.63
2022-11-13T06:30:57.592Z,7.68
2022-11-13T06:34:19.509Z,9.25
2022-11-13T06:37:41.667Z,6.65
2022-11-13T06:41:06.162Z,4.80
2022-11-13T06:44:27.963Z,7.53
2022-11-13T06:47:50.089Z,12.50
2022-11-13T06:51:15.527Z,12.93
2022-11-13T06:54:37.663Z,8.95
2022-11-13T06:58:00.889Z,6.72
2022-11-13T07:01:25.013Z,4.22
2022-11-13T07:04:46.852Z,11.90
2022-11-13T07:08:09.249Z,7.95
2022-11-13T07:11:31.389Z,11.18
2022-11-13T07:14:54.759Z,12.25
2022-11-13T07:18:20.228Z,10.48
2022-11-13T07:21:45.439Z,13.68
2022-11-13T07:25:08.446Z,10.55
2022-11-13T07:28:30.738Z,6.85
2022-11-13T07:31:54.578Z,4.10
2022-11-13T07:35:16.942Z,5.22
2022-11-13T07:38:39.181Z,9.60
2022-11-13T07:42:01.389Z,8.98
2022-11-13T07:45:23.621Z,17.35
2022-11-13T07:48:47.180Z,11.23
2022-11-13T07:52:09.069Z,10.25
2022-11-13T07:55:31.724Z,16.02
2022-11-13T07:58:53.688Z,10.35
2022-11-13T08:02:17.148Z,15.10
2022-11-13T08:05:41.022Z,9.38
2022-11-13T08:09:02.812Z,9.52
2022-11-13T08:12:25.232Z,10.40
2022-11-13T08:15:47.603Z,9.45
2022-11-13T08:19:09.991Z,6.57
2022-11-13T08:22:33.773Z,10.48
2022-11-13T08:25:56.134Z,6.13
2022-11-13T08:29:18.592Z,9.13
2022-11-13T08:32:40.506Z,5.43
2022-11-13T08:36:02.669Z,7.28
2022-11-13T08:39:26.326Z,8.25
2022-11-13T08:42:48.540Z,8.18
2022-11-13T08:46:10.765Z,6.80
2022-11-13T08:49:32.876Z,7.50
2022-11-13T08:52:55.980Z,5.72
2022-11-13T08:56:20.141Z,7.22
2022-11-13T08:59:42.192Z,7.65
2022-11-13T09:03:04.828Z,8.82
2022-11-13T09:06:26.545Z,4.22
2022-11-13T09:09:48.659Z,4.47
2022-11-13T09:13:12.599Z,7.25
2022-11-13T09:16:34.401Z,16.83
2022-11-13T09:20:00.813Z,5.90
2022-11-13T09:23:25.369Z,8.63
2022-11-13T09:26:47.437Z,13.50
2022-11-13T09:30:11.990Z,11.52
2022-11-13T09:33:34.117Z,11.60
2022-11-13T09:36:55.959Z,6.65
2022-11-13T09:40:29.451Z,6.60
2022-11-13T09:43:59.608Z,6.60
2022-11-13T09:47:26.134Z,4.90
2022-11-13T09:50:48.314Z,7.93
2022-11-13T09:54:15.138Z,8.95
2022-11-13T09:57:42.465Z,8.25
2022-11-13T10:01:04.614Z,9.57
2022-11-13T10:04:39.163Z,10.77
2022-11-13T10:08:08.341Z,6.22
2022-11-13T10:11:40.955Z,11.82
2022-11-13T10:15:06.476Z,10.07
2022-11-13T10:18:32.454Z,5.72
2022-11-13T10:22:19.556Z,10.93
2022-11-13T10:25:42.992Z,1.07
2022-11-13T10:29:15.133Z,7.28
2022-11-13T10:32:39.730Z,9.23
2022-11-13T10:36:21.883Z,9.60
2022-11-13T10:39:45.811Z,7.68
2022-11-13T10:43:14.751Z,2.97
2022-11-13T10:49:58.955Z,7.88
2022-11-13T10:53:21.194Z,6.97
2022-11-13T10:56:57.149Z,7.30
2022-11-13T11:00:25.169Z,6.30
2022-11-13T11:03:51.182Z,5.93
2022-11-13T11:07:21.432Z,4.30
2022-11-13T11:11:03.882Z,3.95
2022-11-13T11:14:30.655Z,8.32
2022-11-13T11:17:55.945Z,5.82
2022-11-13T11:21:22.198Z,5.60
2022-11-13T11:24:52.242Z,6.50
2022-11-13T11:28:21.923Z,10.90
2022-11-13T11:31:52.092Z,11.95
2022-11-13T11:35:20.550Z,6.15
2022-11-13T11:38:54.978Z,5.63
2022-11-13T11:42:29.663Z,8.90
2022-11-13T11:45:52.017Z,6.55
2022-11-13T11:49:15.645Z,15.98
2022-11-13T11:52:57.970Z,42.13
2022-11-13T11:56:28.749Z,10.13
2022-11-13T12:00:04.501Z,9.00
2022-11-13T12:03:53.937Z,4.15
2022-11-13T12:07:32.027Z,6.65
2022-11-13T12:11:02.031Z,9.48
2022-11-13T12:14:34.811Z,2.45
2022-11-13T12:18:06.863Z,5.20
2022-11-13T12:21:36.671Z,3.85
2022-11-13T12:25:15.825Z,6.60
2022-11-13T12:28:47.838Z,5.13
2022-11-13T12:32:24.547Z,7.80
2022-11-13T12:35:53.411Z,13.65
2022-11-13T12:39:33.683Z,8.88
2022-11-13T12:43:07.422Z,7.78
2022-11-13T12:46:38.079Z,9.85
2022-11-13T12:50:03.999Z,9.93
2022-11-13T12:53:28.046Z,9.30
2022-11-13T12:56:49.973Z,7.22
2022-11-13T13:00:27.927Z,23.75
2022-11-13T13:04:30.856Z,10.95
2022-11-13T13:08:43.418Z,21.13
2022-11-13T13:12:14.557Z,22.58
2022-11-13T13:15:40.020Z,9.23
2022-11-13T13:19:10.100Z,12.07
2022-11-13T13:22:34.601Z,10.50
2022-11-13T13:26:04.802Z,13.60
2022-11-13T13:29:27.923Z,10.07
2022-11-13T13:33:05.632Z,9.40
2022-11-13T13:36:36.544Z,8.02
2022-11-13T13:40:14.510Z,36.78
2022-11-13T13:43:51.049Z,9.93
2022-11-13T13:47:22.255Z,6.78
2022-11-13T13:50:48.096Z,11.43
2022-11-13T13:54:11.609Z,13.30
2022-11-13T13:57:41.552Z,19.80
2022-11-13T14:01:18.818Z,16.33
2022-11-13T14:04:47.073Z,20.15
2022-11-13T14:08:19.677Z,15.98
2022-11-13T14:11:41.610Z,31.52
2022-11-13T14:15:06.296Z,48.38
2022-11-13T14:18:28.529Z,37.13
2022-11-13T14:21:53.055Z,43.47
2022-11-13T14:25:23.618Z,36.13
2022-11-13T14:28:53.604Z,31.80
2022-11-13T14:32:22.329Z,42.70
2022-11-13T14:35:54.292Z,33.83
2022-11-13T14:39:24.035Z,39.58
2022-11-13T14:42:50.757Z,48.10
2022-11-13T14:46:28.681Z,55.15
2022-11-13T14:49:50.682Z,46.00
2022-11-13T14:53:13.004Z,43.33
2022-11-13T14:56:37.012Z,30.88
2022-11-13T15:00:11.576Z,27.08
2022-11-13T15:03:34.116Z,27.85
2022-11-13T15:07:00.955Z,26.52
2022-11-13T15:10:24.758Z,44.38
2022-11-13T15:13:47.351Z,45.65
2022-11-13T15:17:16.884Z,45.05
2022-11-13T15:20:38.963Z,51.17
2022-11-13T15:24:01.800Z,51.95
2022-11-13T15:27:24.041Z,61.42
2022-11-13T15:30:46.084Z,54.58
2022-11-13T15:34:12.044Z,60.40
2022-11-13T15:37:34.119Z,48.92
2022-11-13T15:40:56.292Z,42.83
2022-11-13T15:44:18.423Z,49.58
2022-11-13T15:47:40.526Z,36.45
2022-11-13T15:51:03.826Z,31.40
2022-11-13T15:54:27.909Z,25.50
2022-11-13T15:57:51.086Z,21.20
2022-11-13T16:01:15.644Z,27.55
2022-11-13T16:04:55.573Z,24.88
2022-11-13T16:08:19.465Z,24.60
2022-11-13T16:11:42.456Z,21.13
2022-11-13T16:15:05.665Z,28.35
2022-11-13T16:18:30.630Z,15.25
2022-11-13T16:21:52.261Z,22.98
2022-11-13T16:25:17.611Z,16.77
2022-11-13T16:29:07.189Z,28.80
2022-11-13T16:32:22.487Z,34.85
2022-11-13T16:35:44.760Z,29.75
2022-11-13T16:39:07.818Z,66.78
2022-11-13T16:42:31.208Z,33.67
2022-11-13T16:45:54.191Z,28.35
2022-11-13T16:49:19.486Z,26.92
2022-11-13T16:52:41.306Z,30.75
2022-11-13T16:56:03.467Z,26.52
2022-11-13T16:59:27.011Z,32.55
2022-11-13T17:02:52.813Z,24.77
2022-11-13T17:06:22.269Z,25.40
2022-11-13T17:09:45.566Z,27.85
2022-11-13T17:13:14.946Z,17.17
2022-11-13T17:16:41.097Z,24.35
2022-11-13T17:20:03.288Z,23.00
2022-11-13T17:23:25.585Z,22.10
2022-11-13T17:26:47.322Z,19.75
2022-11-13T17:30:11.689Z,22.48
2022-11-13T17:33:35.529Z,20.42
2022-11-13T17:36:57.768Z,24.13
2022-11-13T17:40:19.911Z,34.45
2022-11-13T17:43:42.961Z,32.13
2022-11-13T17:47:05.144Z,25.08
2022-11-13T17:50:28.689Z,21.30
2022-11-13T17:53:50.285Z,21.10
2022-11-13T17:57:13.024Z,32.42
2022-11-13T18:00:34.940Z,27.90
2022-11-13T18:03:57.387Z,15.88
2022-11-13T18:07:20.893Z,13.85
2022-11-13T18:10:44.114Z,13.63
2022-11-13T18:14:06.253Z,15.10
2022-11-13T18:17:28.617Z,18.45
2022-11-13T18:20:50.438Z,14.98
2022-11-13T18:24:16.751Z,15.70
2022-11-13T18:27:39.134Z,16.50
2022-11-13T18:31:06.268Z,16.42
2022-11-13T18:34:29.029Z,24.48
2022-11-13T18:37:52.421Z,19.73
2022-11-13T18:41:17.589Z,23.25
2022-11-13T18:44:39.924Z,22.98
2022-11-13T18:48:01.599Z,21.77
2022-11-13T18:51:25.324Z,20.00
2022-11-13T18:54:47.669Z,23.77
2022-11-13T18:58:10.816Z,30.42
2022-11-13T19:01:35.062Z,28.05
2022-11-13T19:04:57.179Z,27.67
2022-11-13T19:08:19.673Z,31.15
2022-11-13T19:11:42.194Z,27.33
2022-11-13T19:15:07.575Z,41.47
2022-11-13T19:18:30.255Z,48.10
2022-11-13T19:21:52.925Z,35.22
2022-11-13T19:25:14.828Z,29.60
2022-11-13T19:28:37.807Z,30.40
2022-11-13T19:32:01.369Z,37.80
2022-11-13T19:35:23.225Z,39.60
2022-11-13T19:38:46.088Z,46.53
2022-11-13T19:42:07.950Z,34.03
2022-11-13T19:45:31.239Z,35.33
2022-11-13T19:48:55.019Z,27.67
2022-11-13T19:52:17.234Z,31.77
2022-11-13T19:55:39.349Z,21.40
2022-11-13T19:59:01.714Z,19.75
2022-11-13T20:02:23.462Z,16.90
2022-11-13T20:05:47.124Z,15.73
2022-11-13T20:09:12.154Z,21.98
2022-11-13T20:12:34.124Z,15.88
2022-11-13T20:15:56.549Z,19.27
2022-11-13T20:19:18.345Z,17.05
2022-11-13T20:22:41.969Z,15.40
2022-11-13T20:26:05.916Z,14.65
2022-11-13T20:29:28.060Z,25.85
2022-11-13T20:32:50.242Z,20.15
2022-11-13T20:36:12.401Z,22.00
2022-11-13T20:39:35.885Z,17.00
2022-11-13T20:42:57.783Z,24.48
2022-11-13T20:46:21.583Z,15.02
2022-11-13T20:49:43.441Z,21.48
2022-11-13T20:53:05.495Z,21.70
2022-11-13T20:56:31.149Z,14.43
2022-11-13T20:59:53.160Z,22.98
2022-11-13T21:03:15.334Z,15.27
2022-11-13T21:06:40.154Z,15.43
2022-11-13T21:10:02.183Z,13.05
2022-11-13T21:13:26.004Z,17.15
2022-11-13T21:16:48.194Z,10.65
2022-11-13T21:20:11.300Z,4.93
2022-11-13T21:23:33.556Z,7.05
2022-11-13T21:26:56.005Z,8.57
2022-11-13T21:30:19.828Z,5.95
2022-11-13T21:33:43.542Z,6.65
2022-11-13T21:37:05.492Z,5.50
2022-11-13T21:40:27.636Z,5.00
2022-11-13T21:43:50.217Z,4.22
2022-11-13T21:47:13.793Z,4.32
2022-11-13T21:50:35.764Z,5.35
2022-11-13T21:53:58.545Z,6.35
2022-11-13T21:57:22.832Z,5.10
2022-11-13T22:00:45.060Z,3.60
2022-11-13T22:04:08.468Z,5.68
2022-11-13T22:07:30.707Z,3.25
2022-11-13T22:10:52.943Z,3.90
2022-11-13T22:14:15.001Z,7.22
2022-11-13T22:17:37.189Z,4.90
2022-11-13T22:21:03.141Z,3.20
2022-11-13T22:24:24.774Z,3.78
2022-11-13T22:27:46.269Z,2.92
2022-11-13T22:31:09.522Z,5.38
2022-11-13T22:34:30.935Z,5.47
2022-11-13T22:37:53.975Z,6.18
2022-11-13T22:41:22.552Z,7.03
2022-11-13T22:44:55.940Z,4.75
2022-11-13T22:48:18.077Z,7.88
2022-11-13T22:51:41.791Z,6.07
2022-11-13T22:55:05.345Z,4.88
2022-11-13T22:58:29.115Z,4.50
2022-11-13T23:01:51.015Z,8.00
2022-11-13T23:05:13.103Z,3.10
2022-11-13T23:08:38.876Z,7.10
2022-11-13T23:12:02.169Z,7.05
2022-11-13T23:15:24.022Z,8.57
2022-11-13T23:18:49.826Z,11.70
2022-11-13T23:22:11.970Z,5.72
2022-11-13T23:25:34.037Z,7.10
2022-11-13T23:28:57.985Z,5.05
2022-11-13T23:32:19.954Z,5.25
2022-11-13T23:35:41.852Z,5.75
2022-11-13T23:39:04.036Z,3.85
2022-11-13T23:42:45.620Z,5.38
2022-11-13T23:46:09.412Z,5.30
2022-11-13T23:49:31.580Z,3.75
2022-11-13T23:52:53.688Z,1.90
2022-11-13T23:56:15.636Z,3.15
2022-11-13T23:59:37.538Z,5.38
